sensor_id;sensor_type;location;lat;lon;timestamp;P1;durP1;ratioP1;P2;durP2;ratioP2
83447;SDS011;73376;45.472;-73.568;2024-03-17T00:01:09;7.40;;;1.57;;
83447;SDS011;73376;45.472;-73.568;2024-03-17T00:03:36;4.80;;;2.00;;
83447;SDS011;73376;45.472;-73.568;2024-03-17T00:06:02;3.23;;;1.47;;
83447;SDS011;73376;45.472;-73.568;2024-03-17T00:08:30;2.50;;;1.37;;
83447;SDS011;73376;45.472;-73.568;2024-03-17T00:10:56;2.90;;;1.73;;
83447;SDS011;73376;45.472;-73.568;2024-03-17T00:13:23;4.80;;;1.70;;
83447;SDS011;73376;45.472;-73.568;2024-03-17T00:15:49;7.77;;;2.20;;
83447;SDS011;73376;45.472;-73.568;2024-03-17T00:18:18;4.20;;;1.80;;
83447;SDS011;73376;45.472;-73.568;2024-03-17T00:20:45;1.80;;;1.50;;
83447;SDS011;73376;45.472;-73.568;2024-03-17T00:23:10;6.30;;;1.70;;
83447;SDS011;73376;45.472;-73.568;2024-03-17T00:25:37;7.23;;;1.70;;
83447;SDS011;73376;45.472;-73.568;2024-03-17T00:28:04;3.17;;;1.60;;
83447;SDS011;73376;45.472;-73.568;2024-03-17T00:30:30;3.73;;;1.60;;
83447;SDS011;73376;45.472;-73.568;2024-03-17T00:32:56;5.77;;;1.63;;
83447;SDS011;73376;45.472;-73.568;2024-03-17T00:35:23;3.10;;;1.37;;
83447;SDS011;73376;45.472;-73.568;2024-03-17T00:37:50;2.43;;;1.20;;
83447;SDS011;73376;45.472;-73.568;2024-03-17T00:40:19;4.77;;;1.30;;
83447;SDS011;73376;45.472;-73.568;2024-03-17T00:42:45;2.70;;;1.40;;
83447;SDS011;73376;45.472;-73.568;2024-03-17T00:45:12;2.93;;;1.50;;
83447;SDS011;73376;45.472;-73.568;2024-03-17T00:47:38;4.70;;;1.60;;
83447;SDS011;73376;45.472;-73.568;2024-03-17T00:50:05;6.83;;;1.70;;
83447;SDS011;73376;45.472;-73.568;2024-03-17T00:52:36;2.80;;;1.67;;
83447;SDS011;73376;45.472;-73.568;2024-03-17T00:55:02;3.37;;;1.50;;
83447;SDS011;73376;45.472;-73.568;2024-03-17T00:57:31;2.83;;;1.50;;
83447;SDS011;73376;45.472;-73.568;2024-03-17T01:00:00;4.13;;;1.60;;
83447;SDS011;73376;45.472;-73.568;2024-03-17T01:02:26;3.87;;;1.60;;
83447;SDS011;73376;45.472;-73.568;2024-03-17T01:04:54;2.00;;;1.40;;
83447;SDS011;73376;45.472;-73.568;2024-03-17T01:07:20;4.27;;;1.60;;
83447;SDS011;73376;45.472;-73.568;2024-03-17T01:09:49;4.07;;;1.53;;
83447;SDS011;73376;45.472;-73.568;2024-03-17T01:12:15;3.77;;;1.43;;
83447;SDS011;73376;45.472;-73.568;2024-03-17T01:14:43;2.87;;;1.43;;
83447;SDS011;73376;45.472;-73.568;2024-03-17T01:17:09;2.50;;;1.57;;
83447;SDS011;73376;45.472;-73.568;2024-03-17T01:19:35;8.43;;;1.90;;
83447;SDS011;73376;45.472;-73.568;2024-03-17T01:22:01;6.97;;;1.70;;
83447;SDS011;73376;45.472;-73.568;2024-03-17T01:24:27;1.93;;;1.43;;
83447;SDS011;73376;45.472;-73.568;2024-03-17T01:26:57;6.77;;;1.87;;
83447;SDS011;73376;45.472;-73.568;2024-03-17T01:29:26;4.50;;;1.90;;
83447;SDS011;73376;45.472;-73.568;2024-03-17T01:31:53;4.47;;;1.50;;
83447;SDS011;73376;45.472;-73.568;2024-03-17T01:34:21;3.27;;;1.67;;
83447;SDS011;73376;45.472;-73.568;2024-03-17T01:36:48;2.23;;;1.70;;
83447;SDS011;73376;45.472;-73.568;2024-03-17T01:39:14;3.00;;;1.90;;
83447;SDS011;73376;45.472;-73.568;2024-03-17T01:41:41;3.07;;;1.53;;
83447;SDS011;73376;45.472;-73.568;2024-03-17T01:44:23;4.67;;;1.70;;
83447;SDS011;73376;45.472;-73.568;2024-03-17T01:46:55;4.03;;;1.73;;
83447;SDS011;73376;45.472;-73.568;2024-03-17T01:49:22;4.27;;;1.50;;
83447;SDS011;73376;45.472;-73.568;2024-03-17T01:51:51;2.13;;;1.60;;
83447;SDS011;73376;45.472;-73.568;2024-03-17T01:54:19;3.20;;;1.80;;
83447;SDS011;73376;45.472;-73.568;2024-03-17T01:56:46;2.63;;;1.77;;
83447;SDS011;73376;45.472;-73.568;2024-03-17T01:59:13;3.53;;;1.87;;
83447;SDS011;73376;45.472;-73.568;2024-03-17T02:01:39;2.90;;;1.73;;
83447;SDS011;73376;45.472;-73.568;2024-03-17T02:04:06;2.27;;;1.50;;
83447;SDS011;73376;45.472;-73.568;2024-03-17T02:06:32;3.73;;;2.10;;
83447;SDS011;73376;45.472;-73.568;2024-03-17T02:09:01;3.27;;;2.00;;
83447;SDS011;73376;45.472;-73.568;2024-03-17T02:11:30;2.40;;;1.70;;
83447;SDS011;73376;45.472;-73.568;2024-03-17T02:13:58;3.67;;;1.73;;
83447;SDS011;73376;45.472;-73.568;2024-03-17T02:16:25;3.97;;;1.73;;
83447;SDS011;73376;45.472;-73.568;2024-03-17T02:18:55;4.93;;;2.00;;
83447;SDS011;73376;45.472;-73.568;2024-03-17T02:21:22;2.90;;;2.00;;
83447;SDS011;73376;45.472;-73.568;2024-03-17T02:23:50;4.50;;;2.23;;
83447;SDS011;73376;45.472;-73.568;2024-03-17T02:26:19;3.33;;;2.20;;
83447;SDS011;73376;45.472;-73.568;2024-03-17T02:28:46;2.80;;;1.90;;
83447;SDS011;73376;45.472;-73.568;2024-03-17T02:31:14;3.33;;;2.40;;
83447;SDS011;73376;45.472;-73.568;2024-03-17T02:33:41;5.70;;;2.40;;
83447;SDS011;73376;45.472;-73.568;2024-03-17T02:36:07;3.90;;;2.60;;
83447;SDS011;73376;45.472;-73.568;2024-03-17T02:38:34;5.10;;;2.20;;
83447;SDS011;73376;45.472;-73.568;2024-03-17T02:41:19;3.93;;;2.47;;
83447;SDS011;73376;45.472;-73.568;2024-03-17T02:43:46;3.47;;;2.30;;
83447;SDS011;73376;45.472;-73.568;2024-03-17T02:46:13;3.07;;;2.17;;
83447;SDS011;73376;45.472;-73.568;2024-03-17T02:48:40;2.97;;;2.20;;
83447;SDS011;73376;45.472;-73.568;2024-03-17T02:51:13;3.27;;;2.00;;
83447;SDS011;73376;45.472;-73.568;2024-03-17T02:53:45;4.83;;;2.70;;
83447;SDS011;73376;45.472;-73.568;2024-03-17T02:56:12;2.50;;;1.97;;
83447;SDS011;73376;45.472;-73.568;2024-03-17T02:58:42;2.60;;;2.07;;
83447;SDS011;73376;45.472;-73.568;2024-03-17T03:01:08;5.50;;;2.20;;
83447;SDS011;73376;45.472;-73.568;2024-03-17T03:03:37;4.03;;;2.13;;
83447;SDS011;73376;45.472;-73.568;2024-03-17T03:06:03;3.17;;;1.90;;
83447;SDS011;73376;45.472;-73.568;2024-03-17T03:08:37;5.13;;;2.50;;
83447;SDS011;73376;45.472;-73.568;2024-03-17T03:11:07;2.80;;;2.00;;
83447;SDS011;73376;45.472;-73.568;2024-03-17T03:13:37;3.23;;;1.87;;
83447;SDS011;73376;45.472;-73.568;2024-03-17T03:16:07;2.80;;;2.13;;
83447;SDS011;73376;45.472;-73.568;2024-03-17T03:18:37;4.10;;;2.23;;
83447;SDS011;73376;45.472;-73.568;2024-03-17T03:21:06;3.13;;;2.00;;
83447;SDS011;73376;45.472;-73.568;2024-03-17T03:23:33;2.60;;;1.90;;
83447;SDS011;73376;45.472;-73.568;2024-03-17T03:25:59;2.70;;;1.80;;
83447;SDS011;73376;45.472;-73.568;2024-03-17T03:28:33;3.20;;;1.75;;
83447;SDS011;73376;45.472;-73.568;2024-03-17T03:30:59;2.97;;;2.30;;
83447;SDS011;73376;45.472;-73.568;2024-03-17T03:33:28;4.07;;;2.10;;
83447;SDS011;73376;45.472;-73.568;2024-03-17T03:35:54;5.23;;;2.00;;
83447;SDS011;73376;45.472;-73.568;2024-03-17T03:38:20;5.20;;;1.80;;
83447;SDS011;73376;45.472;-73.568;2024-03-17T03:40:50;4.90;;;1.87;;
83447;SDS011;73376;45.472;-73.568;2024-03-17T03:43:17;3.07;;;1.90;;
83447;SDS011;73376;45.472;-73.568;2024-03-17T03:45:43;2.97;;;1.60;;
83447;SDS011;73376;45.472;-73.568;2024-03-17T03:48:11;1.83;;;1.53;;
83447;SDS011;73376;45.472;-73.568;2024-03-17T03:50:40;4.43;;;1.77;;
83447;SDS011;73376;45.472;-73.568;2024-03-17T03:53:06;3.37;;;1.70;;
83447;SDS011;73376;45.472;-73.568;2024-03-17T03:55:32;2.60;;;1.90;;
83447;SDS011;73376;45.472;-73.568;2024-03-17T03:57:59;2.17;;;1.60;;
83447;SDS011;73376;45.472;-73.568;2024-03-17T04:00:25;4.27;;;1.80;;
83447;SDS011;73376;45.472;-73.568;2024-03-17T04:02:55;2.10;;;1.80;;
83447;SDS011;73376;45.472;-73.568;2024-03-17T04:05:23;2.63;;;1.80;;
83447;SDS011;73376;45.472;-73.568;2024-03-17T04:07:50;2.00;;;1.60;;
83447;SDS011;73376;45.472;-73.568;2024-03-17T04:10:16;3.00;;;1.97;;
83447;SDS011;73376;45.472;-73.568;2024-03-17T04:12:44;3.23;;;1.97;;
83447;SDS011;73376;45.472;-73.568;2024-03-17T04:15:10;2.37;;;1.67;;
83447;SDS011;73376;45.472;-73.568;2024-03-17T04:17:36;2.93;;;1.83;;
83447;SDS011;73376;45.472;-73.568;2024-03-17T04:20:07;3.80;;;2.00;;
83447;SDS011;73376;45.472;-73.568;2024-03-17T04:22:35;3.20;;;2.17;;
83447;SDS011;73376;45.472;-73.568;2024-03-17T04:25:02;6.23;;;2.30;;
83447;SDS011;73376;45.472;-73.568;2024-03-17T04:27:29;3.27;;;2.33;;
83447;SDS011;73376;45.472;-73.568;2024-03-17T04:29:56;5.50;;;1.90;;
83447;SDS011;73376;45.472;-73.568;2024-03-17T04:32:24;2.90;;;1.80;;
83447;SDS011;73376;45.472;-73.568;2024-03-17T04:34:53;3.40;;;1.90;;
83447;SDS011;73376;45.472;-73.568;2024-03-17T04:37:19;4.23;;;2.23;;
83447;SDS011;73376;45.472;-73.568;2024-03-17T04:39:46;2.00;;;1.70;;
83447;SDS011;73376;45.472;-73.568;2024-03-17T04:42:12;2.83;;;1.67;;
83447;SDS011;73376;45.472;-73.568;2024-03-17T04:44:43;2.63;;;1.73;;
83447;SDS011;73376;45.472;-73.568;2024-03-17T04:47:10;2.27;;;1.67;;
83447;SDS011;73376;45.472;-73.568;2024-03-17T04:49:39;3.97;;;1.77;;
83447;SDS011;73376;45.472;-73.568;2024-03-17T04:52:07;3.73;;;1.80;;
83447;SDS011;73376;45.472;-73.568;2024-03-17T04:54:33;2.07;;;1.77;;
83447;SDS011;73376;45.472;-73.568;2024-03-17T04:57:00;2.37;;;1.60;;
83447;SDS011;73376;45.472;-73.568;2024-03-17T04:59:27;2.63;;;1.87;;
83447;SDS011;73376;45.472;-73.568;2024-03-17T05:01:53;2.70;;;1.80;;
83447;SDS011;73376;45.472;-73.568;2024-03-17T05:04:20;3.10;;;1.67;;
83447;SDS011;73376;45.472;-73.568;2024-03-17T05:06:46;2.90;;;1.90;;
83447;SDS011;73376;45.472;-73.568;2024-03-17T05:09:15;2.27;;;1.63;;
83447;SDS011;73376;45.472;-73.568;2024-03-17T05:11:41;3.17;;;2.07;;
83447;SDS011;73376;45.472;-73.568;2024-03-17T05:14:08;3.27;;;1.70;;
83447;SDS011;73376;45.472;-73.568;2024-03-17T05:16:34;2.70;;;1.80;;
83447;SDS011;73376;45.472;-73.568;2024-03-17T05:19:00;3.47;;;2.10;;
83447;SDS011;73376;45.472;-73.568;2024-03-17T05:21:29;2.83;;;1.87;;
83447;SDS011;73376;45.472;-73.568;2024-03-17T05:24:00;2.70;;;1.90;;
83447;SDS011;73376;45.472;-73.568;2024-03-17T05:26:27;3.17;;;2.10;;
83447;SDS011;73376;45.472;-73.568;2024-03-17T05:28:53;3.87;;;2.80;;
83447;SDS011;73376;45.472;-73.568;2024-03-17T05:31:19;6.90;;;2.33;;
83447;SDS011;73376;45.472;-73.568;2024-03-17T05:33:47;4.70;;;2.33;;
83447;SDS011;73376;45.472;-73.568;2024-03-17T05:36:14;4.33;;;1.97;;
83447;SDS011;73376;45.472;-73.568;2024-03-17T05:38:40;3.97;;;2.60;;
83447;SDS011;73376;45.472;-73.568;2024-03-17T05:41:07;3.47;;;2.33;;
83447;SDS011;73376;45.472;-73.568;2024-03-17T05:43:38;3.57;;;2.40;;
83447;SDS011;73376;45.472;-73.568;2024-03-17T05:46:04;3.40;;;2.37;;
83447;SDS011;73376;45.472;-73.568;2024-03-17T05:48:32;3.73;;;2.27;;
83447;SDS011;73376;45.472;-73.568;2024-03-17T05:51:03;3.97;;;2.38;;
83447;SDS011;73376;45.472;-73.568;2024-03-17T05:53:29;2.53;;;2.07;;
83447;SDS011;73376;45.472;-73.568;2024-03-17T05:56:00;3.43;;;2.50;;
83447;SDS011;73376;45.472;-73.568;2024-03-17T05:58:27;2.90;;;2.40;;
83447;SDS011;73376;45.472;-73.568;2024-03-17T06:00:53;3.10;;;2.50;;
83447;SDS011;73376;45.472;-73.568;2024-03-17T06:03:19;6.57;;;2.60;;
83447;SDS011;73376;45.472;-73.568;2024-03-17T06:05:46;3.33;;;2.30;;
83447;SDS011;73376;45.472;-73.568;2024-03-17T06:08:16;3.23;;;2.20;;
83447;SDS011;73376;45.472;-73.568;2024-03-17T06:10:46;4.97;;;2.97;;
83447;SDS011;73376;45.472;-73.568;2024-03-17T06:13:13;5.13;;;3.05;;
83447;SDS011;73376;45.472;-73.568;2024-03-17T06:15:42;3.67;;;2.10;;
83447;SDS011;73376;45.472;-73.568;2024-03-17T06:18:09;3.87;;;2.50;;
83447;SDS011;73376;45.472;-73.568;2024-03-17T06:20:42;5.33;;;2.63;;
83447;SDS011;73376;45.472;-73.568;2024-03-17T06:23:13;4.88;;;2.58;;
83447;SDS011;73376;45.472;-73.568;2024-03-17T06:25:47;5.47;;;2.80;;
83447;SDS011;73376;45.472;-73.568;2024-03-17T06:28:14;6.50;;;3.10;;
83447;SDS011;73376;45.472;-73.568;2024-03-17T06:30:45;8.33;;;3.63;;
83447;SDS011;73376;45.472;-73.568;2024-03-17T06:33:19;6.37;;;4.00;;
83447;SDS011;73376;45.472;-73.568;2024-03-17T06:35:46;5.27;;;3.27;;
83447;SDS011;73376;45.472;-73.568;2024-03-17T06:38:15;9.07;;;3.73;;
83447;SDS011;73376;45.472;-73.568;2024-03-17T06:40:42;5.43;;;3.10;;
83447;SDS011;73376;45.472;-73.568;2024-03-17T06:43:16;4.03;;;2.73;;
83447;SDS011;73376;45.472;-73.568;2024-03-17T06:45:57;2.83;;;2.17;;
83447;SDS011;73376;45.472;-73.568;2024-03-17T06:48:25;3.73;;;2.70;;
83447;SDS011;73376;45.472;-73.568;2024-03-17T06:50:52;3.07;;;2.37;;
83447;SDS011;73376;45.472;-73.568;2024-03-17T06:53:20;4.83;;;2.50;;
83447;SDS011;73376;45.472;-73.568;2024-03-17T06:55:53;5.20;;;3.20;;
83447;SDS011;73376;45.472;-73.568;2024-03-17T06:58:24;3.57;;;2.57;;
83447;SDS011;73376;45.472;-73.568;2024-03-17T07:00:52;5.97;;;3.00;;
83447;SDS011;73376;45.472;-73.568;2024-03-17T07:03:20;4.53;;;3.00;;
83447;SDS011;73376;45.472;-73.568;2024-03-17T07:05:51;5.20;;;2.83;;
83447;SDS011;73376;45.472;-73.568;2024-03-17T07:08:18;5.25;;;2.92;;
83447;SDS011;73376;45.472;-73.568;2024-03-17T07:10:58;3.80;;;2.83;;
83447;SDS011;73376;45.472;-73.568;2024-03-17T07:13:32;4.53;;;2.97;;
83447;SDS011;73376;45.472;-73.568;2024-03-17T07:15:59;3.50;;;2.92;;
83447;SDS011;73376;45.472;-73.568;2024-03-17T07:18:28;4.90;;;3.10;;
83447;SDS011;73376;45.472;-73.568;2024-03-17T07:20:58;4.10;;;2.93;;
83447;SDS011;73376;45.472;-73.568;2024-03-17T07:23:25;4.63;;;3.20;;
83447;SDS011;73376;45.472;-73.568;2024-03-17T07:25:52;5.63;;;3.40;;
83447;SDS011;73376;45.472;-73.568;2024-03-17T07:28:19;6.27;;;3.40;;
83447;SDS011;73376;45.472;-73.568;2024-03-17T07:30:49;6.47;;;3.73;;
83447;SDS011;73376;45.472;-73.568;2024-03-17T07:33:16;4.03;;;2.90;;
83447;SDS011;73376;45.472;-73.568;2024-03-17T07:35:46;4.13;;;3.03;;
83447;SDS011;73376;45.472;-73.568;2024-03-17T07:38:13;3.40;;;2.50;;
83447;SDS011;73376;45.472;-73.568;2024-03-17T07:40:40;4.30;;;2.70;;
83447;SDS011;73376;45.472;-73.568;2024-03-17T07:43:07;5.73;;;3.00;;
83447;SDS011;73376;45.472;-73.568;2024-03-17T07:45:33;5.23;;;3.00;;
83447;SDS011;73376;45.472;-73.568;2024-03-17T07:47:59;5.10;;;3.00;;
83447;SDS011;73376;45.472;-73.568;2024-03-17T07:50:25;5.00;;;2.97;;
83447;SDS011;73376;45.472;-73.568;2024-03-17T07:52:53;5.20;;;2.90;;
83447;SDS011;73376;45.472;-73.568;2024-03-17T07:55:19;7.27;;;3.50;;
83447;SDS011;73376;45.472;-73.568;2024-03-17T07:57:45;7.90;;;3.50;;
83447;SDS011;73376;45.472;-73.568;2024-03-17T08:00:13;5.97;;;3.50;;
83447;SDS011;73376;45.472;-73.568;2024-03-17T08:02:48;5.95;;;3.35;;
83447;SDS011;73376;45.472;-73.568;2024-03-17T08:05:14;5.82;;;2.92;;
83447;SDS011;73376;45.472;-73.568;2024-03-17T08:07:43;4.50;;;3.17;;
83447;SDS011;73376;45.472;-73.568;2024-03-17T08:10:10;8.40;;;3.57;;
83447;SDS011;73376;45.472;-73.568;2024-03-17T08:12:38;4.50;;;3.33;;
83447;SDS011;73376;45.472;-73.568;2024-03-17T08:15:04;6.47;;;3.10;;
83447;SDS011;73376;45.472;-73.568;2024-03-17T08:17:31;6.30;;;3.20;;
83447;SDS011;73376;45.472;-73.568;2024-03-17T08:19:57;7.63;;;3.57;;
83447;SDS011;73376;45.472;-73.568;2024-03-17T08:22:23;4.67;;;3.23;;
83447;SDS011;73376;45.472;-73.568;2024-03-17T08:24:49;5.63;;;3.63;;
83447;SDS011;73376;45.472;-73.568;2024-03-17T08:27:15;4.97;;;3.33;;
83447;SDS011;73376;45.472;-73.568;2024-03-17T08:29:41;5.83;;;3.43;;
83447;SDS011;73376;45.472;-73.568;2024-03-17T08:32:10;11.63;;;3.80;;
83447;SDS011;73376;45.472;-73.568;2024-03-17T08:34:36;4.73;;;3.27;;
83447;SDS011;73376;45.472;-73.568;2024-03-17T08:37:02;6.47;;;3.57;;
83447;SDS011;73376;45.472;-73.568;2024-03-17T08:39:28;7.20;;;3.60;;
83447;SDS011;73376;45.472;-73.568;2024-03-17T08:41:54;5.07;;;3.30;;
83447;SDS011;73376;45.472;-73.568;2024-03-17T08:44:20;4.80;;;3.33;;
83447;SDS011;73376;45.472;-73.568;2024-03-17T08:46:46;3.97;;;3.07;;
83447;SDS011;73376;45.472;-73.568;2024-03-17T08:49:12;5.20;;;2.93;;
83447;SDS011;73376;45.472;-73.568;2024-03-17T08:51:40;5.63;;;3.17;;
83447;SDS011;73376;45.472;-73.568;2024-03-17T08:54:06;6.17;;;3.87;;
83447;SDS011;73376;45.472;-73.568;2024-03-17T08:56:33;4.33;;;3.33;;
83447;SDS011;73376;45.472;-73.568;2024-03-17T08:59:00;7.97;;;3.37;;
83447;SDS011;73376;45.472;-73.568;2024-03-17T09:01:29;4.77;;;3.27;;
83447;SDS011;73376;45.472;-73.568;2024-03-17T09:03:57;5.70;;;3.20;;
83447;SDS011;73376;45.472;-73.568;2024-03-17T09:06:26;5.07;;;3.27;;
83447;SDS011;73376;45.472;-73.568;2024-03-17T09:08:55;5.23;;;3.13;;
83447;SDS011;73376;45.472;-73.568;2024-03-17T09:11:21;7.00;;;3.10;;
83447;SDS011;73376;45.472;-73.568;2024-03-17T09:13:50;7.13;;;3.67;;
83447;SDS011;73376;45.472;-73.568;2024-03-17T09:16:16;6.83;;;3.53;;
83447;SDS011;73376;45.472;-73.568;2024-03-17T09:18:43;6.40;;;3.43;;
83447;SDS011;73376;45.472;-73.568;2024-03-17T09:21:10;4.93;;;3.40;;
83447;SDS011;73376;45.472;-73.568;2024-03-17T09:23:39;7.40;;;3.70;;
83447;SDS011;73376;45.472;-73.568;2024-03-17T09:26:06;9.00;;;3.83;;
83447;SDS011;73376;45.472;-73.568;2024-03-17T09:28:38;5.63;;;3.43;;
83447;SDS011;73376;45.472;-73.568;2024-03-17T09:31:04;7.33;;;3.27;;
83447;SDS011;73376;45.472;-73.568;2024-03-17T09:33:33;7.00;;;3.43;;
83447;SDS011;73376;45.472;-73.568;2024-03-17T09:36:03;5.60;;;3.43;;
83447;SDS011;73376;45.472;-73.568;2024-03-17T09:38:36;5.50;;;3.23;;
83447;SDS011;73376;45.472;-73.568;2024-03-17T09:41:03;6.57;;;3.40;;
83447;SDS011;73376;45.472;-73.568;2024-03-17T09:43:32;6.00;;;3.10;;
83447;SDS011;73376;45.472;-73.568;2024-03-17T09:46:01;4.13;;;3.23;;
83447;SDS011;73376;45.472;-73.568;2024-03-17T09:50:57;7.10;;;3.53;;
83447;SDS011;73376;45.472;-73.568;2024-03-17T09:56:01;5.43;;;3.53;;
83447;SDS011;73376;45.472;-73.568;2024-03-17T09:58:33;4.73;;;3.30;;
83447;SDS011;73376;45.472;-73.568;2024-03-17T10:01:02;5.77;;;3.20;;
83447;SDS011;73376;45.472;-73.568;2024-03-17T10:06:16;6.73;;;3.77;;
83447;SDS011;73376;45.472;-73.568;2024-03-17T10:08:53;5.93;;;3.20;;
83447;SDS011;73376;45.472;-73.568;2024-03-17T10:11:32;5.27;;;3.70;;
83447;SDS011;73376;45.472;-73.568;2024-03-17T10:14:07;6.57;;;3.90;;
83447;SDS011;73376;45.472;-73.568;2024-03-17T10:16:35;5.00;;;3.43;;
83447;SDS011;73376;45.472;-73.568;2024-03-17T10:21:42;6.87;;;3.50;;
83447;SDS011;73376;45.472;-73.568;2024-03-17T10:24:13;6.75;;;3.80;;
83447;SDS011;73376;45.472;-73.568;2024-03-17T10:31:44;5.13;;;3.33;;
83447;SDS011;73376;45.472;-73.568;2024-03-17T10:34:14;6.20;;;3.83;;
83447;SDS011;73376;45.472;-73.568;2024-03-17T10:36:44;6.57;;;3.70;;
83447;SDS011;73376;45.472;-73.568;2024-03-17T10:39:31;5.43;;;3.90;;
83447;SDS011;73376;45.472;-73.568;2024-03-17T10:42:00;8.50;;;3.97;;
83447;SDS011;73376;45.472;-73.568;2024-03-17T10:44:28;8.53;;;4.30;;
83447;SDS011;73376;45.472;-73.568;2024-03-17T10:46:58;9.00;;;4.30;;
83447;SDS011;73376;45.472;-73.568;2024-03-17T10:49:29;6.97;;;3.90;;
83447;SDS011;73376;45.472;-73.568;2024-03-17T10:52:00;7.87;;;4.67;;
83447;SDS011;73376;45.472;-73.568;2024-03-17T10:54:31;7.57;;;4.13;;
83447;SDS011;73376;45.472;-73.568;2024-03-17T10:57:13;9.93;;;4.23;;
83447;SDS011;73376;45.472;-73.568;2024-03-17T10:59:57;5.80;;;3.47;;
83447;SDS011;73376;45.472;-73.568;2024-03-17T11:02:27;4.20;;;3.50;;
83447;SDS011;73376;45.472;-73.568;2024-03-17T11:05:01;7.17;;;3.97;;
83447;SDS011;73376;45.472;-73.568;2024-03-17T11:07:29;7.80;;;3.90;;
83447;SDS011;73376;45.472;-73.568;2024-03-17T11:09:59;7.60;;;4.13;;
83447;SDS011;73376;45.472;-73.568;2024-03-17T11:18:39;6.77;;;3.50;;
83447;SDS011;73376;45.472;-73.568;2024-03-17T11:20:43;5.17;;;3.30;;
83447;SDS011;73376;45.472;-73.568;2024-03-17T11:23:41;6.17;;;3.30;;
83447;SDS011;73376;45.472;-73.568;2024-03-17T11:26:08;5.10;;;3.10;;
83447;SDS011;73376;45.472;-73.568;2024-03-17T11:36:56;3.60;;;2.87;;
83447;SDS011;73376;45.472;-73.568;2024-03-17T11:42:21;5.30;;;2.80;;
83447;SDS011;73376;45.472;-73.568;2024-03-17T11:44:58;4.83;;;3.10;;
83447;SDS011;73376;45.472;-73.568;2024-03-17T11:47:43;7.00;;;3.60;;
83447;SDS011;73376;45.472;-73.568;2024-03-17T11:50:12;4.77;;;3.60;;
83447;SDS011;73376;45.472;-73.568;2024-03-17T11:52:38;7.77;;;3.67;;
83447;SDS011;73376;45.472;-73.568;2024-03-17T11:55:14;5.63;;;3.03;;
83447;SDS011;73376;45.472;-73.568;2024-03-17T11:57:42;5.63;;;3.30;;
83447;SDS011;73376;45.472;-73.568;2024-03-17T12:00:20;4.83;;;3.17;;
83447;SDS011;73376;45.472;-73.568;2024-03-17T12:02:48;6.40;;;3.43;;
83447;SDS011;73376;45.472;-73.568;2024-03-17T12:05:15;5.40;;;3.13;;
83447;SDS011;73376;45.472;-73.568;2024-03-17T12:07:43;5.03;;;3.13;;
83447;SDS011;73376;45.472;-73.568;2024-03-17T12:10:12;6.03;;;3.40;;
83447;SDS011;73376;45.472;-73.568;2024-03-17T12:12:41;5.70;;;3.10;;
83447;SDS011;73376;45.472;-73.568;2024-03-17T12:15:21;6.95;;;3.20;;
83447;SDS011;73376;45.472;-73.568;2024-03-17T12:17:51;4.23;;;2.80;;
83447;SDS011;73376;45.472;-73.568;2024-03-17T12:20:19;5.40;;;2.70;;
83447;SDS011;73376;45.472;-73.568;2024-03-17T12:22:46;5.93;;;2.90;;
83447;SDS011;73376;45.472;-73.568;2024-03-17T12:25:16;3.70;;;2.60;;
83447;SDS011;73376;45.472;-73.568;2024-03-17T12:27:44;5.45;;;2.63;;
83447;SDS011;73376;45.472;-73.568;2024-03-17T12:30:12;4.13;;;2.80;;
83447;SDS011;73376;45.472;-73.568;2024-03-17T12:32:38;4.80;;;3.03;;
83447;SDS011;73376;45.472;-73.568;2024-03-17T12:35:09;6.40;;;3.10;;
83447;SDS011;73376;45.472;-73.568;2024-03-17T12:37:38;6.77;;;3.17;;
83447;SDS011;73376;45.472;-73.568;2024-03-17T12:40:06;5.37;;;2.93;;
83447;SDS011;73376;45.472;-73.568;2024-03-17T12:42:47;5.27;;;2.90;;
83447;SDS011;73376;45.472;-73.568;2024-03-17T12:45:19;4.45;;;2.55;;
83447;SDS011;73376;45.472;-73.568;2024-03-17T12:47:49;3.37;;;2.27;;
83447;SDS011;73376;45.472;-73.568;2024-03-17T12:50:17;4.55;;;2.53;;
83447;SDS011;73376;45.472;-73.568;2024-03-17T12:52:52;4.97;;;2.90;;
83447;SDS011;73376;45.472;-73.568;2024-03-17T12:55:20;10.80;;;4.23;;
83447;SDS011;73376;45.472;-73.568;2024-03-17T12:58:06;4.90;;;3.20;;
83447;SDS011;73376;45.472;-73.568;2024-03-17T13:03:27;3.87;;;2.93;;
83447;SDS011;73376;45.472;-73.568;2024-03-17T13:05:58;5.10;;;3.17;;
83447;SDS011;73376;45.472;-73.568;2024-03-17T13:08:24;5.47;;;3.13;;
83447;SDS011;73376;45.472;-73.568;2024-03-17T13:10:51;4.77;;;2.83;;
83447;SDS011;73376;45.472;-73.568;2024-03-17T13:13:17;5.30;;;3.83;;
83447;SDS011;73376;45.472;-73.568;2024-03-17T13:15:43;5.80;;;3.50;;
83447;SDS011;73376;45.472;-73.568;2024-03-17T13:18:09;5.37;;;3.67;;
83447;SDS011;73376;45.472;-73.568;2024-03-17T13:20:43;6.33;;;4.03;;
83447;SDS011;73376;45.472;-73.568;2024-03-17T13:23:10;6.43;;;4.00;;
83447;SDS011;73376;45.472;-73.568;2024-03-17T13:25:39;5.33;;;4.00;;
83447;SDS011;73376;45.472;-73.568;2024-03-17T13:28:08;5.70;;;3.93;;
83447;SDS011;73376;45.472;-73.568;2024-03-17T13:30:35;6.30;;;4.03;;
83447;SDS011;73376;45.472;-73.568;2024-03-17T13:33:05;7.60;;;4.33;;
83447;SDS011;73376;45.472;-73.568;2024-03-17T13:35:35;9.30;;;4.50;;
83447;SDS011;73376;45.472;-73.568;2024-03-17T13:38:06;7.10;;;3.88;;
83447;SDS011;73376;45.472;-73.568;2024-03-17T13:40:36;6.10;;;4.33;;
83447;SDS011;73376;45.472;-73.568;2024-03-17T13:43:03;6.00;;;4.17;;
83447;SDS011;73376;45.472;-73.568;2024-03-17T13:45:48;7.70;;;4.23;;
83447;SDS011;73376;45.472;-73.568;2024-03-17T13:48:14;7.40;;;4.70;;
83447;SDS011;73376;45.472;-73.568;2024-03-17T13:50:40;6.63;;;3.97;;
83447;SDS011;73376;45.472;-73.568;2024-03-17T13:53:09;6.67;;;3.70;;
83447;SDS011;73376;45.472;-73.568;2024-03-17T13:55:36;4.87;;;3.53;;
83447;SDS011;73376;45.472;-73.568;2024-03-17T13:58:03;5.37;;;3.93;;
83447;SDS011;73376;45.472;-73.568;2024-03-17T14:00:32;5.50;;;3.93;;
83447;SDS011;73376;45.472;-73.568;2024-03-17T14:03:08;6.17;;;4.03;;
83447;SDS011;73376;45.472;-73.568;2024-03-17T14:05:34;4.90;;;3.67;;
83447;SDS011;73376;45.472;-73.568;2024-03-17T14:08:01;4.57;;;3.67;;
83447;SDS011;73376;45.472;-73.568;2024-03-17T14:10:27;6.10;;;3.80;;
83447;SDS011;73376;45.472;-73.568;2024-03-17T14:12:53;5.27;;;3.47;;
83447;SDS011;73376;45.472;-73.568;2024-03-17T14:15:19;5.30;;;3.80;;
83447;SDS011;73376;45.472;-73.568;2024-03-17T14:17:46;4.77;;;3.40;;
83447;SDS011;73376;45.472;-73.568;2024-03-17T14:20:14;5.47;;;3.43;;
83447;SDS011;73376;45.472;-73.568;2024-03-17T14:22:43;5.53;;;3.53;;
83447;SDS011;73376;45.472;-73.568;2024-03-17T14:25:16;5.50;;;3.83;;
83447;SDS011;73376;45.472;-73.568;2024-03-17T14:27:45;5.60;;;3.80;;
83447;SDS011;73376;45.472;-73.568;2024-03-17T14:30:15;7.37;;;3.73;;
83447;SDS011;73376;45.472;-73.568;2024-03-17T14:32:44;7.50;;;4.07;;
83447;SDS011;73376;45.472;-73.568;2024-03-17T14:35:12;5.60;;;4.00;;
83447;SDS011;73376;45.472;-73.568;2024-03-17T14:37:40;5.13;;;3.40;;
83447;SDS011;73376;45.472;-73.568;2024-03-17T14:40:08;5.30;;;3.70;;
83447;SDS011;73376;45.472;-73.568;2024-03-17T14:42:42;5.43;;;4.00;;
83447;SDS011;73376;45.472;-73.568;2024-03-17T14:45:08;5.90;;;4.30;;
83447;SDS011;73376;45.472;-73.568;2024-03-17T14:47:36;6.87;;;3.70;;
83447;SDS011;73376;45.472;-73.568;2024-03-17T14:50:04;4.90;;;3.50;;
83447;SDS011;73376;45.472;-73.568;2024-03-17T14:52:31;4.80;;;3.60;;
83447;SDS011;73376;45.472;-73.568;2024-03-17T14:54:58;5.53;;;3.90;;
83447;SDS011;73376;45.472;-73.568;2024-03-17T14:57:24;8.13;;;3.93;;
83447;SDS011;73376;45.472;-73.568;2024-03-17T14:59:52;6.80;;;4.10;;
83447;SDS011;73376;45.472;-73.568;2024-03-17T15:02:18;6.80;;;3.70;;
83447;SDS011;73376;45.472;-73.568;2024-03-17T15:04:47;5.47;;;3.87;;